Date,TemperatureHighF,TemperatureAvgF,TemperatureLowF,DewpointHighF,DewpointAvgF,DewpointLowF,HumidityHigh,HumidityAvg,HumidityLow,PressureMaxIn,PressureMinIn,WindSpeedMaxMPH,WindSpeedAvgMPH,GustSpeedMaxMPH,PrecipitationSumIn
2013-1-1,45.5,41.1,36.3,39.4,26.1,16.0,79,56,41,29.71,29.44,8,3,8,0.00
2013-1-2,39.4,35.2,30.2,17.4,15.9,14.5,57,45,36,29.74,29.68,9,2,9,0.00
2013-1-3,50.2,39.1,28.9,18.8,14.0,4.4,59,38,16,29.85,29.74,8,1,8,0.00
2013-1-4,50.2,44.1,39.0,18.2,15.1,10.9,40,31,21,29.94,29.77,5,0,5,0.00
2013-1-5,52.7,43.7,37.6,31.5,24.1,17.4,70,47,29,29.77,29.62,8,1,8,0.00
2013-1-6,56.8,42.9,33.6,27.3,15.0,0.2,72,38,12,29.80,29.71,8,2,8,0.00
2013-1-7,56.5,42.7,28.2,20.4,15.2,11.0,52,34,17,29.74,29.53,161,2,161,0.00
2013-1-8,48.7,47.3,45.7,43.8,32.7,17.5,83,60,30,29.53,29.38,8,1,8,0.87
2013-1-9,56.3,51.9,48.6,51.0,46.8,43.6,84,83,79,29.56,29.35,13,2,13,1.65
2013-1-10,61.3,55.5,49.5,53.0,39.6,28.7,84,58,31,29.41,29.32,13,3,13,0.31
2013-1-11,71.6,59.4,46.9,52.6,35.8,30.4,63,43,23,29.38,29.21,14,4,14,0.31
2013-1-12,67.5,55.2,36.5,61.4,44.2,19.6,81,67,46,29.35,29.09,13,3,13,0.31
2013-1-13,43.5,36.0,30.2,19.9,11.0,4.7,51,36,25,29.68,29.35,14,5,14,0.31
2013-1-14,44.6,34.8,27.5,13.2,8.1,4.4,41,33,22,29.74,29.62,8,3,8,0.31
2013-1-15,37.6,34.3,29.1,21.4,13.5,6.5,71,43,31,29.65,29.56,9,4,9,0.31
2013-1-16,48.7,37.3,28.6,12.5,5.5,-1.7,42,28,14,29.71,29.56,6,2,6,0.31
2013-1-17,59.9,46.6,36.5,19.3,12.5,4.2,39,26,12,29.91,29.65,8,2,8,0.31
2013-1-18,62.6,47.4,31.8,27.3,17.1,8.9,62,33,13,29.91,29.68,8,2,8,0.31
2013-1-19,65.8,52.2,41.2,32.3,26.8,19.0,59,39,24,29.68,29.56,11,2,11,0.31
2013-1-20,70.2,52.3,37.4,40.2,27.9,17.5,72,43,15,29.62,29.47,9,1,9,0.31
2013-1-21,58.6,47.5,38.7,34.6,19.1,10.2,67,34,19,29.71,29.53,8,2,8,0.31
2013-1-22,65.3,50.0,36.5,33.2,21.9,9.5,49,33,24,29.74,29.59,8,1,8,0.31
2013-1-23,74.1,60.9,47.3,42.6,37.1,31.4,67,44,23,29.68,29.53,11,3,11,0.31
2013-1-24,78.4,61.2,54.3,53.2,43.7,36.4,79,55,23,29.59,29.44,8,2,8,0.00
2013-1-25,61.0,51.0,46.4,46.1,33.1,23.9,78,52,38,29.62,29.44,6,2,6,0.00
2013-1-26,51.6,48.1,45.0,45.5,38.0,24.5,80,69,41,29.62,29.53,6,1,6,0.00
2013-1-27,74.8,62.0,48.6,57.0,45.9,40.6,83,60,30,29.53,29.35,14,3,14,0.00
2013-1-28,77.2,71.8,67.6,52.3,48.3,42.9,58,44,31,29.41,29.26,13,5,13,0.00
2013-1-29,77.2,67.6,54.7,53.9,46.1,9.6,70,47,17,29.26,28.85,19,5,19,0.24
2013-1-30,56.5,47.5,38.1,24.3,9.1,-3.8,41,22,11,29.56,29.09,18,4,18,0.24
2013-1-31,69.6,50.9,34.0,14.1,5.7,-1.6,36,19,7,29.74,29.50,14,2,14,0.00